Vineland Cherry Ave.

*Note: All times are displayed in the local standard time of the station location.
**Rain - Equipment is designed to accurately record liquid precipitation; under conditions when precipitation is not in liquid form, the data displayed may not properly reflect rainfall values.

Date Max Temp
(°C)
Min Temp
(°C)
Avg Temp
(°C)
Rain (mm) Avg RH (%) Solar Rad (kJ/m2)
Mon, Apr 23, 2018 11.7 -3.6 5.1 0.0 70.4 15469.2
Sun, Apr 22, 2018 16.0 -4.3 6.4 0.0 55.1 15514.0
Sat, Apr 21, 2018 14.9 -5.0 5.8 0.0 53.6 14121.7
Fri, Apr 20, 2018 9.1 -3.2 2.9 0.0 60.3 15189.5
Thu, Apr 19, 2018 4.6 0.3 2.4 0.0 66.2 7139.2
Wed, Apr 18, 2018 5.0 0.8 2.4 0.0 76.5 6285.4
Tue, Apr 17, 2018 1.8 -1.1 0.8 0.0 75.7 7170.6
DateTime Avg Temp (°C) Rain (mm) RH (%) Solar Rad (kJ/m2)
Tue, Apr 24, 2018 18:00 13.1 0.2 80.3 179.9
Tue, Apr 24, 2018 17:00 14.5 0.0 66.0 221.2
Tue, Apr 24, 2018 16:00 15.2 0.0 56.0 272.8
Tue, Apr 24, 2018 15:00 17.6 0.0 43.0 546.0
Tue, Apr 24, 2018 14:00 18.1 0.0 42.0 1127.1
Tue, Apr 24, 2018 13:00 17.3 0.0 41.5 1132.0
Tue, Apr 24, 2018 12:00 16.3 0.0 45.3 1001.4
Tue, Apr 24, 2018 11:00 14.4 0.0 55.8 771.4
Tue, Apr 24, 2018 10:00 13.7 0.0 62.0 536.3
Tue, Apr 24, 2018 09:00 13.7 0.0 62.0 308.6
Tue, Apr 24, 2018 08:00 13.5 0.0 59.0 175.7
Tue, Apr 24, 2018 07:00 12.2 0.0 63.5 18.9
Tue, Apr 24, 2018 06:00 12.1 0.0 62.5 0.0
Tue, Apr 24, 2018 05:00 12.0 0.0 61.3 0.0
Tue, Apr 24, 2018 04:00 3.7 0.0 86.0 0.0
Tue, Apr 24, 2018 03:00 3.0 0.0 88.8 0.0
Tue, Apr 24, 2018 02:00 3.2 0.0 88.0 0.0
Tue, Apr 24, 2018 01:00 3.4 0.0 82.3 0.0
Tue, Apr 24, 2018 00:00 4.2 0.0 78.3 0.0
Mon, Apr 23, 2018 23:00 4.2 0.0 77.5 0.0
Mon, Apr 23, 2018 22:00 4.5 0.0 77.3 0.0
Mon, Apr 23, 2018 21:00 5.0 0.0 75.8 0.6
Mon, Apr 23, 2018 20:00 6.4 0.0 69.5 103.5
Mon, Apr 23, 2018 19:00 8.3 0.0 60.3 405.6
Mon, Apr 23, 2018 18:00 9.8 0.0 54.5 886.5
Mon, Apr 23, 2018 17:00 10.7 0.0 49.5 1312.7
Mon, Apr 23, 2018 16:00 11.6 0.0 45.5 1661.2
Mon, Apr 23, 2018 15:00 10.9 0.0 48.5 1893.6
Mon, Apr 23, 2018 14:00 10.1 0.0 54.5 1999.0
Mon, Apr 23, 2018 13:00 10.5 0.0 52.5 1943.8
Mon, Apr 23, 2018 12:00 10.9 0.0 49.5 1752.9
Mon, Apr 23, 2018 11:00 9.6 0.0 56.8 1449.2
Mon, Apr 23, 2018 10:00 9.1 0.0 60.5 1078.8
Mon, Apr 23, 2018 09:00 6.2 0.0 73.5 672.6
Mon, Apr 23, 2018 08:00 2.6 0.0 80.0 281.2
Mon, Apr 23, 2018 07:00 -0.6 0.0 85.0 28.0
Mon, Apr 23, 2018 06:00 -2.2 0.0 87.3 0.0
Mon, Apr 23, 2018 05:00 -3.0 0.0 90.5 0.0
Mon, Apr 23, 2018 04:00 -2.8 0.0 93.0 0.0
Mon, Apr 23, 2018 03:00 -1.9 0.0 92.5 0.0
Mon, Apr 23, 2018 02:00 -1.1 0.0 89.3 0.0
Mon, Apr 23, 2018 01:00 -1.4 0.0 88.3 0.0
Mon, Apr 23, 2018 00:00 0.1 0.0 82.5 0.0
Sun, Apr 22, 2018 23:00 2.1 0.0 77.5 0.0
Sun, Apr 22, 2018 22:00 2.1 0.0 77.8 0.0
Sun, Apr 22, 2018 21:00 7.3 0.0 53.3 1.5
Sun, Apr 22, 2018 20:00 14.1 0.0 26.8 132.4
Sun, Apr 22, 2018 19:00 15.8 0.0 20.3 500.6


asterix Register now to access more data! asterix